sensor_id;sensor_type;location;lat;lon;timestamp;temperature;humidity
8105;DHT22;4095;48.942;9.104;2022-12-18T00:00:44;-6.60;91.00
8105;DHT22;4095;48.942;9.104;2022-12-18T00:03:10;-6.60;90.60
8105;DHT22;4095;48.942;9.104;2022-12-18T00:05:35;-6.70;90.70
8105;DHT22;4095;48.942;9.104;2022-12-18T00:08:01;-6.80;90.60
8105;DHT22;4095;48.942;9.104;2022-12-18T00:10:27;-6.90;90.70
8105;DHT22;4095;48.942;9.104;2022-12-18T00:12:53;-6.80;90.80
8105;DHT22;4095;48.942;9.104;2022-12-18T00:15:19;-6.70;90.80
8105;DHT22;4095;48.942;9.104;2022-12-18T00:17:44;-6.80;90.50
8105;DHT22;4095;48.942;9.104;2022-12-18T00:20:10;-6.90;90.60
8105;DHT22;4095;48.942;9.104;2022-12-18T00:22:36;-6.80;90.60
8105;DHT22;4095;48.942;9.104;2022-12-18T00:25:01;-6.80;90.60
8105;DHT22;4095;48.942;9.104;2022-12-18T00:27:27;-6.70;90.70
8105;DHT22;4095;48.942;9.104;2022-12-18T00:29:52;-6.70;90.40
8105;DHT22;4095;48.942;9.104;2022-12-18T00:32:18;-6.70;90.40
8105;DHT22;4095;48.942;9.104;2022-12-18T00:34:43;-6.80;90.50
8105;DHT22;4095;48.942;9.104;2022-12-18T00:37:09;-6.70;90.30
8105;DHT22;4095;48.942;9.104;2022-12-18T00:39:35;-6.80;90.20
8105;DHT22;4095;48.942;9.104;2022-12-18T00:42:00;-6.80;90.40
8105;DHT22;4095;48.942;9.104;2022-12-18T00:44:44;-6.80;90.80
8105;DHT22;4095;48.942;9.104;2022-12-18T00:47:10;-6.70;90.70
8105;DHT22;4095;48.942;9.104;2022-12-18T00:49:35;-6.70;90.60
8105;DHT22;4095;48.942;9.104;2022-12-18T00:52:01;-6.80;90.80
8105;DHT22;4095;48.942;9.104;2022-12-18T00:54:26;-6.70;90.70
8105;DHT22;4095;48.942;9.104;2022-12-18T00:56:52;-6.70;90.70
8105;DHT22;4095;48.942;9.104;2022-12-18T00:59:18;-6.70;90.70
8105;DHT22;4095;48.942;9.104;2022-12-18T01:01:44;-6.70;90.40
8105;DHT22;4095;48.942;9.104;2022-12-18T01:04:10;-6.80;90.50
8105;DHT22;4095;48.942;9.104;2022-12-18T01:06:35;-6.80;90.40
8105;DHT22;4095;48.942;9.104;2022-12-18T01:09:01;-6.90;90.80
8105;DHT22;4095;48.942;9.104;2022-12-18T01:11:27;-7.00;90.70
8105;DHT22;4095;48.942;9.104;2022-12-18T01:13:53;-6.90;90.90
8105;DHT22;4095;48.942;9.104;2022-12-18T01:16:20;-6.90;90.60
8105;DHT22;4095;48.942;9.104;2022-12-18T01:18:46;-7.00;90.50
8105;DHT22;4095;48.942;9.104;2022-12-18T01:21:15;-7.00;90.60
8105;DHT22;4095;48.942;9.104;2022-12-18T01:23:45;-7.00;90.60
8105;DHT22;4095;48.942;9.104;2022-12-18T01:26:13;-7.00;90.70
8105;DHT22;4095;48.942;9.104;2022-12-18T01:28:39;-7.00;90.70
8105;DHT22;4095;48.942;9.104;2022-12-18T01:33:44;-7.00;90.50
8105;DHT22;4095;48.942;9.104;2022-12-18T01:36:15;-7.20;90.20
8105;DHT22;4095;48.942;9.104;2022-12-18T01:38:41;-7.20;90.50
8105;DHT22;4095;48.942;9.104;2022-12-18T01:41:08;-7.10;90.70
8105;DHT22;4095;48.942;9.104;2022-12-18T01:43:52;-7.10;90.80
8105;DHT22;4095;48.942;9.104;2022-12-18T01:46:21;-7.00;90.80
8105;DHT22;4095;48.942;9.104;2022-12-18T01:48:49;-6.90;91.10
8105;DHT22;4095;48.942;9.104;2022-12-18T01:51:16;-6.90;90.60
8105;DHT22;4095;48.942;9.104;2022-12-18T01:53:42;-6.90;90.60
8105;DHT22;4095;48.942;9.104;2022-12-18T01:56:12;-7.00;90.50
8105;DHT22;4095;48.942;9.104;2022-12-18T02:01:23;-7.10;90.50
8105;DHT22;4095;48.942;9.104;2022-12-18T02:03:49;-7.00;90.60
8105;DHT22;4095;48.942;9.104;2022-12-18T02:06:33;-7.00;90.70
8105;DHT22;4095;48.942;9.104;2022-12-18T02:09:11;-6.90;90.60
8105;DHT22;4095;48.942;9.104;2022-12-18T02:11:44;-6.90;90.60
8105;DHT22;4095;48.942;9.104;2022-12-18T02:14:40;-7.00;90.40
8105;DHT22;4095;48.942;9.104;2022-12-18T02:17:19;-7.00;90.50
8105;DHT22;4095;48.942;9.104;2022-12-18T02:27:50;-6.80;91.00
8105;DHT22;4095;48.942;9.104;2022-12-18T02:30:18;-6.80;90.90
8105;DHT22;4095;48.942;9.104;2022-12-18T02:32:48;-6.80;90.80
8105;DHT22;4095;48.942;9.104;2022-12-18T02:35:21;-6.80;90.70
8105;DHT22;4095;48.942;9.104;2022-12-18T02:37:48;-6.80;90.60
8105;DHT22;4095;48.942;9.104;2022-12-18T02:40:14;-6.70;90.60
8105;DHT22;4095;48.942;9.104;2022-12-18T02:42:41;-6.70;91.20
8105;DHT22;4095;48.942;9.104;2022-12-18T02:45:07;-6.70;90.90
8105;DHT22;4095;48.942;9.104;2022-12-18T02:47:35;-6.60;90.70
8105;DHT22;4095;48.942;9.104;2022-12-18T02:50:34;-6.60;91.00
8105;DHT22;4095;48.942;9.104;2022-12-18T03:01:19;-6.60;90.90
8105;DHT22;4095;48.942;9.104;2022-12-18T03:03:52;-6.50;90.80
8105;DHT22;4095;48.942;9.104;2022-12-18T03:06:39;-6.60;90.80
8105;DHT22;4095;48.942;9.104;2022-12-18T03:09:12;-6.60;90.90
8105;DHT22;4095;48.942;9.104;2022-12-18T03:11:42;-6.50;90.80
8105;DHT22;4095;48.942;9.104;2022-12-18T03:14:30;-6.50;90.50
8105;DHT22;4095;48.942;9.104;2022-12-18T03:17:00;-6.50;90.60
8105;DHT22;4095;48.942;9.104;2022-12-18T03:19:29;-6.50;90.60
8105;DHT22;4095;48.942;9.104;2022-12-18T03:21:57;-6.60;90.70
8105;DHT22;4095;48.942;9.104;2022-12-18T03:24:26;-6.60;91.10
8105;DHT22;4095;48.942;9.104;2022-12-18T03:26:57;-6.60;91.00
8105;DHT22;4095;48.942;9.104;2022-12-18T03:31:59;-6.50;90.90
8105;DHT22;4095;48.942;9.104;2022-12-18T03:34:30;-6.50;90.80
8105;DHT22;4095;48.942;9.104;2022-12-18T03:36:57;-6.40;91.00
8105;DHT22;4095;48.942;9.104;2022-12-18T03:39:24;-6.40;91.00
8105;DHT22;4095;48.942;9.104;2022-12-18T03:42:10;-6.40;90.80
8105;DHT22;4095;48.942;9.104;2022-12-18T03:45:08;-6.40;90.90
8105;DHT22;4095;48.942;9.104;2022-12-18T03:53:03;-6.60;90.90
8105;DHT22;4095;48.942;9.104;2022-12-18T03:55:33;-6.60;90.80
8105;DHT22;4095;48.942;9.104;2022-12-18T03:58:01;-6.60;91.00
8105;DHT22;4095;48.942;9.104;2022-12-18T04:00:29;-6.60;90.90
8105;DHT22;4095;48.942;9.104;2022-12-18T04:02:56;-6.60;91.00
8105;DHT22;4095;48.942;9.104;2022-12-18T04:05:26;-6.60;91.10
8105;DHT22;4095;48.942;9.104;2022-12-18T04:07:53;-6.50;91.00
8105;DHT22;4095;48.942;9.104;2022-12-18T04:10:19;-6.50;90.90
8105;DHT22;4095;48.942;9.104;2022-12-18T04:12:45;-6.50;90.60
8105;DHT22;4095;48.942;9.104;2022-12-18T04:15:12;-6.50;90.80
8105;DHT22;4095;48.942;9.104;2022-12-18T04:17:38;-6.50;91.00
8105;DHT22;4095;48.942;9.104;2022-12-18T04:20:05;-6.50;91.00
8105;DHT22;4095;48.942;9.104;2022-12-18T04:22:30;-6.40;91.00
8105;DHT22;4095;48.942;9.104;2022-12-18T04:24:56;-6.40;91.10
8105;DHT22;4095;48.942;9.104;2022-12-18T04:27:21;-6.40;91.10
8105;DHT22;4095;48.942;9.104;2022-12-18T04:29:47;-6.30;91.40
8105;DHT22;4095;48.942;9.104;2022-12-18T04:32:13;-6.30;91.10
8105;DHT22;4095;48.942;9.104;2022-12-18T04:34:38;-6.30;91.10
8105;DHT22;4095;48.942;9.104;2022-12-18T04:37:04;-6.30;91.10
8105;DHT22;4095;48.942;9.104;2022-12-18T04:39:29;-6.30;90.90
8105;DHT22;4095;48.942;9.104;2022-12-18T04:41:55;-6.40;90.80
8105;DHT22;4095;48.942;9.104;2022-12-18T04:44:20;-6.30;90.90
8105;DHT22;4095;48.942;9.104;2022-12-18T04:46:46;-6.30;90.70
8105;DHT22;4095;48.942;9.104;2022-12-18T04:49:11;-6.30;90.70
8105;DHT22;4095;48.942;9.104;2022-12-18T04:51:37;-6.30;90.70
8105;DHT22;4095;48.942;9.104;2022-12-18T04:54:03;-6.40;90.70
8105;DHT22;4095;48.942;9.104;2022-12-18T04:56:31;-6.40;90.60
8105;DHT22;4095;48.942;9.104;2022-12-18T04:58:57;-6.50;90.80
8105;DHT22;4095;48.942;9.104;2022-12-18T05:01:22;-6.50;90.60
8105;DHT22;4095;48.942;9.104;2022-12-18T05:03:48;-6.50;90.70
8105;DHT22;4095;48.942;9.104;2022-12-18T05:06:14;-6.50;90.70
8105;DHT22;4095;48.942;9.104;2022-12-18T05:08:40;-6.50;90.60
8105;DHT22;4095;48.942;9.104;2022-12-18T05:11:08;-6.50;90.50
8105;DHT22;4095;48.942;9.104;2022-12-18T05:13:34;-6.60;90.60
8105;DHT22;4095;48.942;9.104;2022-12-18T05:16:01;-6.60;90.90
8105;DHT22;4095;48.942;9.104;2022-12-18T05:18:27;-6.60;91.00
8105;DHT22;4095;48.942;9.104;2022-12-18T05:20:53;-6.60;90.90
8105;DHT22;4095;48.942;9.104;2022-12-18T05:23:20;-6.60;90.90
8105;DHT22;4095;48.942;9.104;2022-12-18T05:25:54;-6.50;91.00
8105;DHT22;4095;48.942;9.104;2022-12-18T05:28:21;-6.50;91.00
8105;DHT22;4095;48.942;9.104;2022-12-18T05:30:52;-6.50;90.90
8105;DHT22;4095;48.942;9.104;2022-12-18T05:33:19;-6.50;90.90
8105;DHT22;4095;48.942;9.104;2022-12-18T05:35:50;-6.50;91.00
8105;DHT22;4095;48.942;9.104;2022-12-18T05:38:16;-6.40;91.40
8105;DHT22;4095;48.942;9.104;2022-12-18T05:40:42;-6.30;91.40
8105;DHT22;4095;48.942;9.104;2022-12-18T05:43:09;-6.30;91.40
8105;DHT22;4095;48.942;9.104;2022-12-18T05:45:37;-6.30;91.40
8105;DHT22;4095;48.942;9.104;2022-12-18T05:48:04;-6.20;91.70
8105;DHT22;4095;48.942;9.104;2022-12-18T05:50:29;-6.20;91.30
8105;DHT22;4095;48.942;9.104;2022-12-18T05:52:55;-6.20;91.60
8105;DHT22;4095;48.942;9.104;2022-12-18T05:55:20;-6.20;91.50
8105;DHT22;4095;48.942;9.104;2022-12-18T05:57:46;-6.20;91.50
8105;DHT22;4095;48.942;9.104;2022-12-18T06:00:12;-6.20;91.50
8105;DHT22;4095;48.942;9.104;2022-12-18T06:02:38;-6.20;91.20
8105;DHT22;4095;48.942;9.104;2022-12-18T06:05:04;-6.20;91.70
8105;DHT22;4095;48.942;9.104;2022-12-18T06:07:29;-6.20;91.50
8105;DHT22;4095;48.942;9.104;2022-12-18T06:09:55;-6.10;91.40
8105;DHT22;4095;48.942;9.104;2022-12-18T06:12:20;-6.10;91.30
8105;DHT22;4095;48.942;9.104;2022-12-18T06:14:46;-6.20;91.20
8105;DHT22;4095;48.942;9.104;2022-12-18T06:17:12;-6.20;91.20
8105;DHT22;4095;48.942;9.104;2022-12-18T06:19:37;-6.30;91.20
8105;DHT22;4095;48.942;9.104;2022-12-18T06:22:03;-6.40;90.90
8105;DHT22;4095;48.942;9.104;2022-12-18T06:24:29;-6.40;91.40
8105;DHT22;4095;48.942;9.104;2022-12-18T06:26:55;-6.40;91.20
8105;DHT22;4095;48.942;9.104;2022-12-18T06:29:20;-6.40;91.10
8105;DHT22;4095;48.942;9.104;2022-12-18T06:31:46;-6.40;91.20
8105;DHT22;4095;48.942;9.104;2022-12-18T06:34:11;-6.40;91.20
8105;DHT22;4095;48.942;9.104;2022-12-18T06:36:37;-6.30;91.10
8105;DHT22;4095;48.942;9.104;2022-12-18T06:39:03;-6.30;91.10
8105;DHT22;4095;48.942;9.104;2022-12-18T06:41:28;-6.30;91.00
8105;DHT22;4095;48.942;9.104;2022-12-18T06:43:54;-6.50;90.60
8105;DHT22;4095;48.942;9.104;2022-12-18T06:46:20;-6.50;90.80
8105;DHT22;4095;48.942;9.104;2022-12-18T06:48:49;-6.60;90.70
8105;DHT22;4095;48.942;9.104;2022-12-18T06:51:20;-6.60;90.80
8105;DHT22;4095;48.942;9.104;2022-12-18T06:53:46;-6.70;90.70
8105;DHT22;4095;48.942;9.104;2022-12-18T06:56:12;-6.70;90.80
8105;DHT22;4095;48.942;9.104;2022-12-18T06:58:38;-6.70;90.80
8105;DHT22;4095;48.942;9.104;2022-12-18T07:01:06;-6.70;90.60
8105;DHT22;4095;48.942;9.104;2022-12-18T07:03:34;-6.70;90.70
8105;DHT22;4095;48.942;9.104;2022-12-18T07:05:59;-6.70;90.80
8105;DHT22;4095;48.942;9.104;2022-12-18T07:08:25;-6.70;90.50
8105;DHT22;4095;48.942;9.104;2022-12-18T07:10:51;-6.80;90.70
8105;DHT22;4095;48.942;9.104;2022-12-18T07:13:17;-6.80;90.80
8105;DHT22;4095;48.942;9.104;2022-12-18T07:15:43;-6.70;91.00
8105;DHT22;4095;48.942;9.104;2022-12-18T07:18:09;-6.60;90.80
8105;DHT22;4095;48.942;9.104;2022-12-18T07:20:35;-6.60;90.70
8105;DHT22;4095;48.942;9.104;2022-12-18T07:23:04;-6.60;90.70
8105;DHT22;4095;48.942;9.104;2022-12-18T07:25:37;-6.60;90.70
8105;DHT22;4095;48.942;9.104;2022-12-18T07:28:03;-6.60;90.50
8105;DHT22;4095;48.942;9.104;2022-12-18T07:30:29;-6.60;90.80
8105;DHT22;4095;48.942;9.104;2022-12-18T07:32:54;-6.50;90.90
8105;DHT22;4095;48.942;9.104;2022-12-18T07:35:20;-6.50;90.90
8105;DHT22;4095;48.942;9.104;2022-12-18T07:37:45;-6.40;91.00
8105;DHT22;4095;48.942;9.104;2022-12-18T07:40:11;-6.40;90.90
8105;DHT22;4095;48.942;9.104;2022-12-18T07:42:37;-6.40;91.00
8105;DHT22;4095;48.942;9.104;2022-12-18T07:45:03;-6.40;91.00
8105;DHT22;4095;48.942;9.104;2022-12-18T07:47:29;-6.50;91.00
8105;DHT22;4095;48.942;9.104;2022-12-18T07:49:54;-6.50;91.00
8105;DHT22;4095;48.942;9.104;2022-12-18T07:52:20;-6.60;91.00
8105;DHT22;4095;48.942;9.104;2022-12-18T07:54:46;-6.50;91.20
8105;DHT22;4095;48.942;9.104;2022-12-18T07:57:14;-6.40;91.20
8105;DHT22;4095;48.942;9.104;2022-12-18T07:59:40;-6.30;91.20
8105;DHT22;4095;48.942;9.104;2022-12-18T08:02:05;-6.30;91.40
8105;DHT22;4095;48.942;9.104;2022-12-18T08:04:31;-6.20;91.40
8105;DHT22;4095;48.942;9.104;2022-12-18T08:06:56;-6.10;91.60
8105;DHT22;4095;48.942;9.104;2022-12-18T08:09:22;-6.10;91.50
8105;DHT22;4095;48.942;9.104;2022-12-18T08:11:48;-6.00;91.50
8105;DHT22;4095;48.942;9.104;2022-12-18T08:14:13;-5.90;91.60
8105;DHT22;4095;48.942;9.104;2022-12-18T08:16:40;-5.80;91.60
8105;DHT22;4095;48.942;9.104;2022-12-18T08:19:05;-5.80;91.70
8105;DHT22;4095;48.942;9.104;2022-12-18T08:21:31;-5.70;92.00
8105;DHT22;4095;48.942;9.104;2022-12-18T08:23:59;-5.70;92.00
8105;DHT22;4095;48.942;9.104;2022-12-18T08:26:26;-5.70;92.10
8105;DHT22;4095;48.942;9.104;2022-12-18T08:28:54;-5.60;92.30
8105;DHT22;4095;48.942;9.104;2022-12-18T08:31:21;-5.60;92.40
8105;DHT22;4095;48.942;9.104;2022-12-18T08:33:49;-5.50;92.40
8105;DHT22;4095;48.942;9.104;2022-12-18T08:36:15;-5.50;92.50
8105;DHT22;4095;48.942;9.104;2022-12-18T08:38:41;-5.40;92.70
8105;DHT22;4095;48.942;9.104;2022-12-18T08:41:09;-5.30;93.00
8105;DHT22;4095;48.942;9.104;2022-12-18T08:43:34;-5.10;93.10
8105;DHT22;4095;48.942;9.104;2022-12-18T08:46:20;-4.90;93.10
8105;DHT22;4095;48.942;9.104;2022-12-18T08:48:46;-4.80;92.90
8105;DHT22;4095;48.942;9.104;2022-12-18T08:51:11;-4.60;92.90
8105;DHT22;4095;48.942;9.104;2022-12-18T08:53:37;-4.50;93.00
8105;DHT22;4095;48.942;9.104;2022-12-18T08:56:03;-4.30;93.10
8105;DHT22;4095;48.942;9.104;2022-12-18T08:58:29;-4.20;92.80
8105;DHT22;4095;48.942;9.104;2022-12-18T09:01:00;-4.10;93.00
8105;DHT22;4095;48.942;9.104;2022-12-18T09:03:26;-4.00;92.90
8105;DHT22;4095;48.942;9.104;2022-12-18T09:05:52;-3.90;93.00
8105;DHT22;4095;48.942;9.104;2022-12-18T09:08:17;-3.70;93.00
8105;DHT22;4095;48.942;9.104;2022-12-18T09:10:47;-3.60;92.70
8105;DHT22;4095;48.942;9.104;2022-12-18T09:13:13;-3.50;93.00
8105;DHT22;4095;48.942;9.104;2022-12-18T09:15:45;-3.30;93.00
8105;DHT22;4095;48.942;9.104;2022-12-18T09:18:11;-3.20;93.10
8105;DHT22;4095;48.942;9.104;2022-12-18T09:20:37;-3.10;93.10
8105;DHT22;4095;48.942;9.104;2022-12-18T09:23:04;-3.00;93.00
8105;DHT22;4095;48.942;9.104;2022-12-18T09:25:30;-2.80;93.00
8105;DHT22;4095;48.942;9.104;2022-12-18T09:28:05;-2.70;93.20
8105;DHT22;4095;48.942;9.104;2022-12-18T09:30:31;-2.50;93.30
8105;DHT22;4095;48.942;9.104;2022-12-18T09:32:59;-2.40;93.30
8105;DHT22;4095;48.942;9.104;2022-12-18T09:35:24;-2.30;93.30
8105;DHT22;4095;48.942;9.104;2022-12-18T09:37:50;-2.10;93.00
8105;DHT22;4095;48.942;9.104;2022-12-18T09:40:21;-2.00;93.20
8105;DHT22;4095;48.942;9.104;2022-12-18T09:43:00;-1.80;93.30
8105;DHT22;4095;48.942;9.104;2022-12-18T09:45:26;-1.70;93.00
8105;DHT22;4095;48.942;9.104;2022-12-18T09:47:54;-1.60;93.10
8105;DHT22;4095;48.942;9.104;2022-12-18T09:50:28;-1.40;93.20
8105;DHT22;4095;48.942;9.104;2022-12-18T09:52:58;-1.30;93.00
8105;DHT22;4095;48.942;9.104;2022-12-18T09:55:41;-1.20;92.90
8105;DHT22;4095;48.942;9.104;2022-12-18T09:58:12;-1.00;92.90
8105;DHT22;4095;48.942;9.104;2022-12-18T10:00:39;-0.80;92.80
8105;DHT22;4095;48.942;9.104;2022-12-18T10:03:13;-0.60;92.70
8105;DHT22;4095;48.942;9.104;2022-12-18T10:13:53;0.80;91.80
8105;DHT22;4095;48.942;9.104;2022-12-18T10:16:26;1.30;91.80
8105;DHT22;4095;48.942;9.104;2022-12-18T10:22:19;2.20;90.80
8105;DHT22;4095;48.942;9.104;2022-12-18T10:25:01;2.60;90.40
8105;DHT22;4095;48.942;9.104;2022-12-18T10:27:28;3.00;90.00
8105;DHT22;4095;48.942;9.104;2022-12-18T10:29:54;3.60;89.40
8105;DHT22;4095;48.942;9.104;2022-12-18T10:32:26;4.00;87.80
8105;DHT22;4095;48.942;9.104;2022-12-18T10:34:54;4.40;87.90
8105;DHT22;4095;48.942;9.104;2022-12-18T10:37:24;4.70;86.20
8105;DHT22;4095;48.942;9.104;2022-12-18T10:40:13;4.90;85.40
8105;DHT22;4095;48.942;9.104;2022-12-18T10:42:40;5.10;84.80
8105;DHT22;4095;48.942;9.104;2022-12-18T10:45:16;5.10;84.40
8105;DHT22;4095;48.942;9.104;2022-12-18T10:47:48;5.20;84.30
8105;DHT22;4095;48.942;9.104;2022-12-18T10:50:28;5.20;83.80
8105;DHT22;4095;48.942;9.104;2022-12-18T10:53:00;5.30;84.40
8105;DHT22;4095;48.942;9.104;2022-12-18T10:55:31;5.40;83.70
8105;DHT22;4095;48.942;9.104;2022-12-18T10:58:20;5.50;83.90
8105;DHT22;4095;48.942;9.104;2022-12-18T11:01:11;5.40;82.90
8105;DHT22;4095;48.942;9.104;2022-12-18T11:03:46;5.20;82.30
8105;DHT22;4095;48.942;9.104;2022-12-18T11:06:17;4.70;84.00
8105;DHT22;4095;48.942;9.104;2022-12-18T11:08:56;4.30;84.70
8105;DHT22;4095;48.942;9.104;2022-12-18T11:11:24;4.00;86.60
8105;DHT22;4095;48.942;9.104;2022-12-18T11:16:28;3.90;88.50
8105;DHT22;4095;48.942;9.104;2022-12-18T11:18:54;4.50;88.20
8105;DHT22;4095;48.942;9.104;2022-12-18T11:21:20;5.10;86.60
8105;DHT22;4095;48.942;9.104;2022-12-18T11:23:49;5.60;85.50
8105;DHT22;4095;48.942;9.104;2022-12-18T11:26:16;5.90;84.00
8105;DHT22;4095;48.942;9.104;2022-12-18T11:29:07;6.20;83.50
8105;DHT22;4095;48.942;9.104;2022-12-18T11:31:33;6.50;83.60
8105;DHT22;4095;48.942;9.104;2022-12-18T11:34:28;7.00;82.60
8105;DHT22;4095;48.942;9.104;2022-12-18T11:36:57;7.20;81.00
8105;DHT22;4095;48.942;9.104;2022-12-18T11:39:36;7.40;80.50
8105;DHT22;4095;48.942;9.104;2022-12-18T11:42:09;7.30;80.40
8105;DHT22;4095;48.942;9.104;2022-12-18T11:50:18;7.40;79.80
8105;DHT22;4095;48.942;9.104;2022-12-18T11:52:44;7.30;79.50
8105;DHT22;4095;48.942;9.104;2022-12-18T11:55:34;7.10;79.30
8105;DHT22;4095;48.942;9.104;2022-12-18T12:01:13;7.00;80.00
8105;DHT22;4095;48.942;9.104;2022-12-18T12:04:01;6.80;79.40
8105;DHT22;4095;48.942;9.104;2022-12-18T12:09:28;6.50;81.00
8105;DHT22;4095;48.942;9.104;2022-12-18T12:12:28;6.40;81.10
8105;DHT22;4095;48.942;9.104;2022-12-18T12:25:59;5.50;84.20
8105;DHT22;4095;48.942;9.104;2022-12-18T12:35:18;4.90;85.80
8105;DHT22;4095;48.942;9.104;2022-12-18T12:40:20;4.20;87.60
8105;DHT22;4095;48.942;9.104;2022-12-18T12:42:59;4.00;88.00
8105;DHT22;4095;48.942;9.104;2022-12-18T12:45:48;3.90;89.00
8105;DHT22;4095;48.942;9.104;2022-12-18T12:50:46;3.60;90.20
8105;DHT22;4095;48.942;9.104;2022-12-18T12:53:26;3.50;90.20
8105;DHT22;4095;48.942;9.104;2022-12-18T12:55:55;3.50;90.20
8105;DHT22;4095;48.942;9.104;2022-12-18T13:09:09;3.30;90.70
8105;DHT22;4095;48.942;9.104;2022-12-18T13:11:43;3.30;90.80
8105;DHT22;4095;48.942;9.104;2022-12-18T13:14:39;3.30;91.20
8105;DHT22;4095;48.942;9.104;2022-12-18T13:19:52;3.20;90.90
8105;DHT22;4095;48.942;9.104;2022-12-18T13:22:35;3.20;91.50
8105;DHT22;4095;48.942;9.104;2022-12-18T13:25:02;3.20;91.40
8105;DHT22;4095;48.942;9.104;2022-12-18T13:30:56;3.20;91.20
8105;DHT22;4095;48.942;9.104;2022-12-18T13:40:57;3.00;92.10
8105;DHT22;4095;48.942;9.104;2022-12-18T13:51:44;2.90;92.00
8105;DHT22;4095;48.942;9.104;2022-12-18T13:54:30;2.80;92.00
8105;DHT22;4095;48.942;9.104;2022-12-18T13:56:58;2.80;92.30
8105;DHT22;4095;48.942;9.104;2022-12-18T13:59:25;2.70;92.50
8105;DHT22;4095;48.942;9.104;2022-12-18T14:01:57;2.70;92.60
8105;DHT22;4095;48.942;9.104;2022-12-18T14:04:26;2.70;92.40
8105;DHT22;4095;48.942;9.104;2022-12-18T14:07:02;2.70;92.60
8105;DHT22;4095;48.942;9.104;2022-12-18T14:09:36;2.70;92.70
8105;DHT22;4095;48.942;9.104;2022-12-18T14:12:03;2.70;92.60
8105;DHT22;4095;48.942;9.104;2022-12-18T14:14:49;2.60;92.40
8105;DHT22;4095;48.942;9.104;2022-12-18T14:17:16;2.60;92.80
8105;DHT22;4095;48.942;9.104;2022-12-18T14:19:48;2.60;92.80
8105;DHT22;4095;48.942;9.104;2022-12-18T14:22:17;2.50;92.80
8105;DHT22;4095;48.942;9.104;2022-12-18T14:24:43;2.40;92.80
8105;DHT22;4095;48.942;9.104;2022-12-18T14:27:20;2.40;93.00
8105;DHT22;4095;48.942;9.104;2022-12-18T14:29:46;2.40;93.20
8105;DHT22;4095;48.942;9.104;2022-12-18T14:32:17;2.30;92.70
8105;DHT22;4095;48.942;9.104;2022-12-18T14:34:45;2.30;92.90
8105;DHT22;4095;48.942;9.104;2022-12-18T14:37:12;2.20;93.10
8105;DHT22;4095;48.942;9.104;2022-12-18T14:39:39;2.20;93.00
8105;DHT22;4095;48.942;9.104;2022-12-18T14:42:05;2.10;93.20
8105;DHT22;4095;48.942;9.104;2022-12-18T14:44:31;2.10;93.40
8105;DHT22;4095;48.942;9.104;2022-12-18T14:46:57;2.00;93.30
8105;DHT22;4095;48.942;9.104;2022-12-18T14:49:41;2.00;93.40
8105;DHT22;4095;48.942;9.104;2022-12-18T14:52:22;2.00;93.40
8105;DHT22;4095;48.942;9.104;2022-12-18T14:54:48;1.90;93.50
8105;DHT22;4095;48.942;9.104;2022-12-18T14:57:21;1.90;93.30
8105;DHT22;4095;48.942;9.104;2022-12-18T14:59:47;1.90;93.40
8105;DHT22;4095;48.942;9.104;2022-12-18T15:02:19;1.80;93.40
8105;DHT22;4095;48.942;9.104;2022-12-18T15:04:46;1.80;93.50
8105;DHT22;4095;48.942;9.104;2022-12-18T15:13:05;1.60;93.50
8105;DHT22;4095;48.942;9.104;2022-12-18T15:20:48;1.50;93.70
8105;DHT22;4095;48.942;9.104;2022-12-18T15:23:34;1.40;93.70
8105;DHT22;4095;48.942;9.104;2022-12-18T15:26:08;1.30;93.70
8105;DHT22;4095;48.942;9.104;2022-12-18T15:28:46;1.30;94.00
8105;DHT22;4095;48.942;9.104;2022-12-18T15:34:01;1.20;93.80
8105;DHT22;4095;48.942;9.104;2022-12-18T15:36:29;1.20;94.00
8105;DHT22;4095;48.942;9.104;2022-12-18T15:39:01;1.10;94.10
8105;DHT22;4095;48.942;9.104;2022-12-18T15:41:27;1.10;94.10
8105;DHT22;4095;48.942;9.104;2022-12-18T15:43:53;1.10;94.10
8105;DHT22;4095;48.942;9.104;2022-12-18T15:46:23;1.00;94.20
8105;DHT22;4095;48.942;9.104;2022-12-18T15:48:52;1.00;94.20
8105;DHT22;4095;48.942;9.104;2022-12-18T15:51:21;0.90;94.00
8105;DHT22;4095;48.942;9.104;2022-12-18T15:53:48;0.90;94.00
8105;DHT22;4095;48.942;9.104;2022-12-18T15:56:16;0.80;94.10
8105;DHT22;4095;48.942;9.104;2022-12-18T15:59:01;0.70;94.10
8105;DHT22;4095;48.942;9.104;2022-12-18T16:01:28;0.70;94.10
8105;DHT22;4095;48.942;9.104;2022-12-18T16:03:54;0.60;94.00
8105;DHT22;4095;48.942;9.104;2022-12-18T16:06:21;0.50;94.00
8105;DHT22;4095;48.942;9.104;2022-12-18T16:08:47;0.40;94.00
8105;DHT22;4095;48.942;9.104;2022-12-18T16:11:24;0.40;94.20
8105;DHT22;4095;48.942;9.104;2022-12-18T16:14:21;0.40;94.10
8105;DHT22;4095;48.942;9.104;2022-12-18T16:16:49;0.30;94.10
8105;DHT22;4095;48.942;9.104;2022-12-18T16:19:15;0.20;94.10
8105;DHT22;4095;48.942;9.104;2022-12-18T16:21:41;0.30;94.20
8105;DHT22;4095;48.942;9.104;2022-12-18T16:24:15;0.20;94.10
8105;DHT22;4095;48.942;9.104;2022-12-18T16:26:41;0.20;94.20
8105;DHT22;4095;48.942;9.104;2022-12-18T16:29:08;0.20;94.50
8105;DHT22;4095;48.942;9.104;2022-12-18T16:31:34;0.20;94.50
8105;DHT22;4095;48.942;9.104;2022-12-18T16:36:41;0.20;94.60
8105;DHT22;4095;48.942;9.104;2022-12-18T16:39:06;0.20;94.60
8105;DHT22;4095;48.942;9.104;2022-12-18T16:41:32;0.20;94.60
8105;DHT22;4095;48.942;9.104;2022-12-18T16:43:58;0.10;94.50
8105;DHT22;4095;48.942;9.104;2022-12-18T16:46:24;0.10;94.80
8105;DHT22;4095;48.942;9.104;2022-12-18T16:48:50;0.10;94.60
8105;DHT22;4095;48.942;9.104;2022-12-18T16:51:15;0.10;94.60
8105;DHT22;4095;48.942;9.104;2022-12-18T16:53:41;0.10;94.70
8105;DHT22;4095;48.942;9.104;2022-12-18T16:56:06;0.20;94.90
8105;DHT22;4095;48.942;9.104;2022-12-18T16:58:32;0.20;95.10
8105;DHT22;4095;48.942;9.104;2022-12-18T17:00:58;0.20;95.10
8105;DHT22;4095;48.942;9.104;2022-12-18T17:03:24;0.20;95.00
8105;DHT22;4095;48.942;9.104;2022-12-18T17:05:49;0.30;95.20
8105;DHT22;4095;48.942;9.104;2022-12-18T17:08:15;0.20;95.10
8105;DHT22;4095;48.942;9.104;2022-12-18T17:10:40;0.20;95.20
8105;DHT22;4095;48.942;9.104;2022-12-18T17:13:06;0.30;95.20
8105;DHT22;4095;48.942;9.104;2022-12-18T17:15:35;0.30;95.30
8105;DHT22;4095;48.942;9.104;2022-12-18T17:18:01;0.30;95.50
8105;DHT22;4095;48.942;9.104;2022-12-18T17:20:29;0.30;95.60
8105;DHT22;4095;48.942;9.104;2022-12-18T17:22:55;0.30;95.60
8105;DHT22;4095;48.942;9.104;2022-12-18T17:25:23;0.40;95.70
8105;DHT22;4095;48.942;9.104;2022-12-18T17:27:50;0.50;95.80
8105;DHT22;4095;48.942;9.104;2022-12-18T17:30:16;0.50;95.80
8105;DHT22;4095;48.942;9.104;2022-12-18T17:32:41;0.50;95.80
8105;DHT22;4095;48.942;9.104;2022-12-18T17:35:07;0.60;95.80
8105;DHT22;4095;48.942;9.104;2022-12-18T17:37:33;0.60;95.60
8105;DHT22;4095;48.942;9.104;2022-12-18T17:39:58;0.70;95.40
8105;DHT22;4095;48.942;9.104;2022-12-18T17:42:24;0.70;95.50
8105;DHT22;4095;48.942;9.104;2022-12-18T17:44:50;0.70;95.50
8105;DHT22;4095;48.942;9.104;2022-12-18T17:47:17;0.80;95.50
8105;DHT22;4095;48.942;9.104;2022-12-18T17:49:42;0.80;95.30
8105;DHT22;4095;48.942;9.104;2022-12-18T17:52:08;0.90;95.40
8105;DHT22;4095;48.942;9.104;2022-12-18T17:54:34;0.90;95.30
8105;DHT22;4095;48.942;9.104;2022-12-18T17:57:04;0.90;95.30
8105;DHT22;4095;48.942;9.104;2022-12-18T17:59:30;0.90;95.40
8105;DHT22;4095;48.942;9.104;2022-12-18T18:01:55;0.90;95.40
8105;DHT22;4095;48.942;9.104;2022-12-18T18:04:21;0.90;95.40
8105;DHT22;4095;48.942;9.104;2022-12-18T18:06:46;0.90;95.30
8105;DHT22;4095;48.942;9.104;2022-12-18T18:09:12;0.90;95.20
8105;DHT22;4095;48.942;9.104;2022-12-18T18:11:38;1.00;95.40
8105;DHT22;4095;48.942;9.104;2022-12-18T18:14:22;1.00;95.20
8105;DHT22;4095;48.942;9.104;2022-12-18T18:16:49;1.00;95.10
8105;DHT22;4095;48.942;9.104;2022-12-18T18:19:17;1.00;95.30
8105;DHT22;4095;48.942;9.104;2022-12-18T18:21:45;1.10;95.00
8105;DHT22;4095;48.942;9.104;2022-12-18T18:24:12;1.00;94.90
8105;DHT22;4095;48.942;9.104;2022-12-18T18:26:39;1.00;94.80